sensor_id;sensor_type;location;lat;lon;timestamp;temperature;humidity
26954;DHT22;14508;50.924;11.600;2023-08-30T00:02:20;14.40;99.90
26954;DHT22;14508;50.924;11.600;2023-08-30T00:04:48;14.40;99.90
26954;DHT22;14508;50.924;11.600;2023-08-30T00:07:16;14.30;99.90
26954;DHT22;14508;50.924;11.600;2023-08-30T00:09:45;14.20;99.90
26954;DHT22;14508;50.924;11.600;2023-08-30T00:12:13;14.20;99.90
26954;DHT22;14508;50.924;11.600;2023-08-30T00:14:41;14.20;99.90
26954;DHT22;14508;50.924;11.600;2023-08-30T00:17:09;14.20;99.90
26954;DHT22;14508;50.924;11.600;2023-08-30T00:19:37;14.10;99.90
26954;DHT22;14508;50.924;11.600;2023-08-30T00:22:05;14.10;99.90
26954;DHT22;14508;50.924;11.600;2023-08-30T00:24:34;14.00;99.90
26954;DHT22;14508;50.924;11.600;2023-08-30T00:27:04;14.00;99.90
26954;DHT22;14508;50.924;11.600;2023-08-30T00:29:32;13.90;99.90
26954;DHT22;14508;50.924;11.600;2023-08-30T00:32:00;13.80;99.90
26954;DHT22;14508;50.924;11.600;2023-08-30T00:34:28;13.80;99.90
26954;DHT22;14508;50.924;11.600;2023-08-30T00:36:56;13.70;99.90
26954;DHT22;14508;50.924;11.600;2023-08-30T00:39:24;13.70;99.90
26954;DHT22;14508;50.924;11.600;2023-08-30T00:41:52;13.70;99.90
26954;DHT22;14508;50.924;11.600;2023-08-30T00:44:21;13.60;99.90
26954;DHT22;14508;50.924;11.600;2023-08-30T00:46:49;13.60;99.90
26954;DHT22;14508;50.924;11.600;2023-08-30T00:49:17;13.50;99.90
26954;DHT22;14508;50.924;11.600;2023-08-30T00:51:45;13.50;99.90
26954;DHT22;14508;50.924;11.600;2023-08-30T00:54:13;13.50;99.90
26954;DHT22;14508;50.924;11.600;2023-08-30T00:56:42;13.40;99.90
26954;DHT22;14508;50.924;11.600;2023-08-30T00:59:11;13.40;99.90
26954;DHT22;14508;50.924;11.600;2023-08-30T01:01:40;13.40;99.90
26954;DHT22;14508;50.924;11.600;2023-08-30T01:04:09;13.30;99.90
26954;DHT22;14508;50.924;11.600;2023-08-30T01:06:37;13.30;99.90
26954;DHT22;14508;50.924;11.600;2023-08-30T01:09:05;13.20;99.90
26954;DHT22;14508;50.924;11.600;2023-08-30T01:11:37;13.20;99.90
26954;DHT22;14508;50.924;11.600;2023-08-30T01:14:09;13.10;99.90
26954;DHT22;14508;50.924;11.600;2023-08-30T01:16:40;13.10;99.90
26954;DHT22;14508;50.924;11.600;2023-08-30T01:19:20;13.10;99.90
26954;DHT22;14508;50.924;11.600;2023-08-30T01:22:01;13.00;99.90
26954;DHT22;14508;50.924;11.600;2023-08-30T01:24:41;13.00;99.90
26954;DHT22;14508;50.924;11.600;2023-08-30T01:27:12;13.00;99.90
26954;DHT22;14508;50.924;11.600;2023-08-30T01:29:44;13.00;99.90
26954;DHT22;14508;50.924;11.600;2023-08-30T01:32:12;12.90;99.90
26954;DHT22;14508;50.924;11.600;2023-08-30T01:34:42;12.90;99.90
26954;DHT22;14508;50.924;11.600;2023-08-30T01:37:12;12.80;99.90
26954;DHT22;14508;50.924;11.600;2023-08-30T01:39:42;12.80;99.90
26954;DHT22;14508;50.924;11.600;2023-08-30T01:42:12;12.80;99.90
26954;DHT22;14508;50.924;11.600;2023-08-30T01:44:42;12.80;99.90
26954;DHT22;14508;50.924;11.600;2023-08-30T01:47:11;12.80;99.90
26954;DHT22;14508;50.924;11.600;2023-08-30T01:49:40;12.70;99.90
26954;DHT22;14508;50.924;11.600;2023-08-30T01:52:09;12.70;99.90
26954;DHT22;14508;50.924;11.600;2023-08-30T01:54:39;12.70;99.90
26954;DHT22;14508;50.924;11.600;2023-08-30T01:57:08;12.70;99.90
26954;DHT22;14508;50.924;11.600;2023-08-30T01:59:38;12.60;99.90
26954;DHT22;14508;50.924;11.600;2023-08-30T02:02:06;12.60;99.90
26954;DHT22;14508;50.924;11.600;2023-08-30T02:04:34;12.60;99.90
26954;DHT22;14508;50.924;11.600;2023-08-30T02:07:03;12.50;99.90
26954;DHT22;14508;50.924;11.600;2023-08-30T02:09:36;12.50;99.90
26954;DHT22;14508;50.924;11.600;2023-08-30T02:12:12;12.50;99.90
26954;DHT22;14508;50.924;11.600;2023-08-30T02:14:44;12.50;99.90
26954;DHT22;14508;50.924;11.600;2023-08-30T02:17:14;12.50;99.90
26954;DHT22;14508;50.924;11.600;2023-08-30T02:19:43;12.50;99.90
26954;DHT22;14508;50.924;11.600;2023-08-30T02:22:11;12.40;99.90
26954;DHT22;14508;50.924;11.600;2023-08-30T02:24:40;12.40;99.90
26954;DHT22;14508;50.924;11.600;2023-08-30T02:27:08;12.40;99.90
26954;DHT22;14508;50.924;11.600;2023-08-30T02:29:36;12.40;99.90
26954;DHT22;14508;50.924;11.600;2023-08-30T02:32:07;12.40;99.90
26954;DHT22;14508;50.924;11.600;2023-08-30T02:34:35;12.40;99.90
26954;DHT22;14508;50.924;11.600;2023-08-30T02:37:04;12.40;99.90
26954;DHT22;14508;50.924;11.600;2023-08-30T02:39:32;12.40;99.90
26954;DHT22;14508;50.924;11.600;2023-08-30T02:42:00;12.30;99.90
26954;DHT22;14508;50.924;11.600;2023-08-30T02:44:28;12.30;99.90
26954;DHT22;14508;50.924;11.600;2023-08-30T02:46:56;12.30;99.90
26954;DHT22;14508;50.924;11.600;2023-08-30T02:49:27;12.30;99.90
26954;DHT22;14508;50.924;11.600;2023-08-30T02:51:55;12.30;99.90
26954;DHT22;14508;50.924;11.600;2023-08-30T02:54:23;12.20;99.90
26954;DHT22;14508;50.924;11.600;2023-08-30T02:56:51;12.20;99.90
26954;DHT22;14508;50.924;11.600;2023-08-30T02:59:19;12.20;99.90
26954;DHT22;14508;50.924;11.600;2023-08-30T03:01:47;12.20;99.90
26954;DHT22;14508;50.924;11.600;2023-08-30T03:04:17;12.20;99.90
26954;DHT22;14508;50.924;11.600;2023-08-30T03:06:47;12.20;99.90
26954;DHT22;14508;50.924;11.600;2023-08-30T03:09:15;12.20;99.90
26954;DHT22;14508;50.924;11.600;2023-08-30T03:11:44;12.10;99.90
26954;DHT22;14508;50.924;11.600;2023-08-30T03:14:12;12.10;99.90
26954;DHT22;14508;50.924;11.600;2023-08-30T03:16:40;12.00;99.90
26954;DHT22;14508;50.924;11.600;2023-08-30T03:19:09;12.00;99.90
26954;DHT22;14508;50.924;11.600;2023-08-30T03:21:37;12.00;99.90
26954;DHT22;14508;50.924;11.600;2023-08-30T03:24:08;12.00;99.90
26954;DHT22;14508;50.924;11.600;2023-08-30T03:26:36;12.00;99.90
26954;DHT22;14508;50.924;11.600;2023-08-30T03:29:05;12.00;99.90
26954;DHT22;14508;50.924;11.600;2023-08-30T03:31:33;12.00;99.90
26954;DHT22;14508;50.924;11.600;2023-08-30T03:34:01;12.00;99.90
26954;DHT22;14508;50.924;11.600;2023-08-30T03:36:29;12.00;99.90
26954;DHT22;14508;50.924;11.600;2023-08-30T03:38:57;12.00;99.90
26954;DHT22;14508;50.924;11.600;2023-08-30T03:41:27;12.00;99.90
26954;DHT22;14508;50.924;11.600;2023-08-30T03:43:55;12.00;99.90
26954;DHT22;14508;50.924;11.600;2023-08-30T03:46:23;12.00;99.90
26954;DHT22;14508;50.924;11.600;2023-08-30T03:48:51;11.90;99.90
26954;DHT22;14508;50.924;11.600;2023-08-30T03:51:19;12.00;99.90
26954;DHT22;14508;50.924;11.600;2023-08-30T03:53:48;12.00;99.90
26954;DHT22;14508;50.924;11.600;2023-08-30T03:56:16;11.90;99.90
26954;DHT22;14508;50.924;11.600;2023-08-30T03:58:46;11.90;99.90
26954;DHT22;14508;50.924;11.600;2023-08-30T04:01:14;11.90;99.90
26954;DHT22;14508;50.924;11.600;2023-08-30T04:03:42;11.90;99.90
26954;DHT22;14508;50.924;11.600;2023-08-30T04:06:10;12.00;99.90
26954;DHT22;14508;50.924;11.600;2023-08-30T04:08:38;12.00;99.90
26954;DHT22;14508;50.924;11.600;2023-08-30T04:11:06;12.00;99.90
26954;DHT22;14508;50.924;11.600;2023-08-30T04:13:34;12.00;99.90
26954;DHT22;14508;50.924;11.600;2023-08-30T04:16:04;12.00;99.90
26954;DHT22;14508;50.924;11.600;2023-08-30T04:18:32;12.00;99.90
26954;DHT22;14508;50.924;11.600;2023-08-30T04:21:00;12.00;99.90
26954;DHT22;14508;50.924;11.600;2023-08-30T04:23:29;12.00;99.90
26954;DHT22;14508;50.924;11.600;2023-08-30T04:25:57;12.00;99.90
26954;DHT22;14508;50.924;11.600;2023-08-30T04:28:25;12.00;99.90
26954;DHT22;14508;50.924;11.600;2023-08-30T04:30:54;11.90;99.90
26954;DHT22;14508;50.924;11.600;2023-08-30T04:33:24;12.00;99.90
26954;DHT22;14508;50.924;11.600;2023-08-30T04:35:53;11.90;99.90
26954;DHT22;14508;50.924;11.600;2023-08-30T04:38:22;11.90;99.90
26954;DHT22;14508;50.924;11.600;2023-08-30T04:40:56;12.00;99.90
26954;DHT22;14508;50.924;11.600;2023-08-30T04:43:24;11.90;99.90
26954;DHT22;14508;50.924;11.600;2023-08-30T04:45:53;11.90;99.90
26954;DHT22;14508;50.924;11.600;2023-08-30T04:48:24;11.90;99.90
26954;DHT22;14508;50.924;11.600;2023-08-30T04:50:58;12.00;99.90
26954;DHT22;14508;50.924;11.600;2023-08-30T04:53:26;11.90;99.90
26954;DHT22;14508;50.924;11.600;2023-08-30T04:55:55;11.90;99.90
26954;DHT22;14508;50.924;11.600;2023-08-30T04:58:23;11.80;99.90
26954;DHT22;14508;50.924;11.600;2023-08-30T05:00:51;11.80;99.90
26954;DHT22;14508;50.924;11.600;2023-08-30T05:03:19;11.80;99.90
26954;DHT22;14508;50.924;11.600;2023-08-30T05:05:48;11.80;99.90
26954;DHT22;14508;50.924;11.600;2023-08-30T05:08:16;11.90;99.90
26954;DHT22;14508;50.924;11.600;2023-08-30T05:10:44;11.90;99.90
26954;DHT22;14508;50.924;11.600;2023-08-30T05:13:15;12.00;99.90
26954;DHT22;14508;50.924;11.600;2023-08-30T05:15:43;12.00;99.90
26954;DHT22;14508;50.924;11.600;2023-08-30T05:18:11;12.00;99.90
26954;DHT22;14508;50.924;11.600;2023-08-30T05:20:39;12.10;99.90
26954;DHT22;14508;50.924;11.600;2023-08-30T05:23:09;12.20;99.90
26954;DHT22;14508;50.924;11.600;2023-08-30T05:25:37;12.20;99.90
26954;DHT22;14508;50.924;11.600;2023-08-30T05:28:05;12.30;99.90
26954;DHT22;14508;50.924;11.600;2023-08-30T05:30:34;12.30;99.90
26954;DHT22;14508;50.924;11.600;2023-08-30T05:33:12;12.40;99.90
26954;DHT22;14508;50.924;11.600;2023-08-30T05:35:47;12.40;99.90
26954;DHT22;14508;50.924;11.600;2023-08-30T05:38:31;12.50;99.90
26954;DHT22;14508;50.924;11.600;2023-08-30T05:41:04;12.60;99.90
26954;DHT22;14508;50.924;11.600;2023-08-30T05:43:32;12.60;99.90
26954;DHT22;14508;50.924;11.600;2023-08-30T05:46:03;12.70;99.90
26954;DHT22;14508;50.924;11.600;2023-08-30T05:48:33;12.80;99.90
26954;DHT22;14508;50.924;11.600;2023-08-30T05:51:01;12.90;99.90
26954;DHT22;14508;50.924;11.600;2023-08-30T05:53:31;13.00;99.90
26954;DHT22;14508;50.924;11.600;2023-08-30T05:55:58;13.10;99.90
26954;DHT22;14508;50.924;11.600;2023-08-30T05:58:28;13.10;99.90
26954;DHT22;14508;50.924;11.600;2023-08-30T06:00:57;13.10;99.90
26954;DHT22;14508;50.924;11.600;2023-08-30T06:03:28;13.10;99.90
26954;DHT22;14508;50.924;11.600;2023-08-30T06:05:57;13.10;99.90
26954;DHT22;14508;50.924;11.600;2023-08-30T06:08:25;13.10;99.90
26954;DHT22;14508;50.924;11.600;2023-08-30T06:10:54;13.20;99.90
26954;DHT22;14508;50.924;11.600;2023-08-30T06:13:22;13.20;99.90
26954;DHT22;14508;50.924;11.600;2023-08-30T06:15:51;13.30;99.90
26954;DHT22;14508;50.924;11.600;2023-08-30T06:18:19;13.30;99.90
26954;DHT22;14508;50.924;11.600;2023-08-30T06:20:47;13.40;99.90
26954;DHT22;14508;50.924;11.600;2023-08-30T06:23:19;13.40;99.90
26954;DHT22;14508;50.924;11.600;2023-08-30T06:25:54;13.50;99.90
26954;DHT22;14508;50.924;11.600;2023-08-30T06:28:23;13.50;99.90
26954;DHT22;14508;50.924;11.600;2023-08-30T06:30:51;13.60;99.90
26954;DHT22;14508;50.924;11.600;2023-08-30T06:33:19;13.60;99.90
26954;DHT22;14508;50.924;11.600;2023-08-30T06:35:48;13.70;99.90
26954;DHT22;14508;50.924;11.600;2023-08-30T06:38:16;13.70;99.90
26954;DHT22;14508;50.924;11.600;2023-08-30T06:40:44;13.80;99.90
26954;DHT22;14508;50.924;11.600;2023-08-30T06:43:14;14.00;99.90
26954;DHT22;14508;50.924;11.600;2023-08-30T06:45:42;14.10;99.90
26954;DHT22;14508;50.924;11.600;2023-08-30T06:48:10;14.20;99.90
26954;DHT22;14508;50.924;11.600;2023-08-30T06:50:39;14.20;99.90
26954;DHT22;14508;50.924;11.600;2023-08-30T06:53:07;14.30;99.90
26954;DHT22;14508;50.924;11.600;2023-08-30T06:55:36;14.40;99.90
26954;DHT22;14508;50.924;11.600;2023-08-30T06:58:04;14.60;99.90
26954;DHT22;14508;50.924;11.600;2023-08-30T07:00:34;14.90;99.90
26954;DHT22;14508;50.924;11.600;2023-08-30T07:03:03;15.10;99.90
26954;DHT22;14508;50.924;11.600;2023-08-30T07:05:31;15.40;99.90
26954;DHT22;14508;50.924;11.600;2023-08-30T07:07:59;15.60;99.90
26954;DHT22;14508;50.924;11.600;2023-08-30T07:10:27;15.70;99.90
26954;DHT22;14508;50.924;11.600;2023-08-30T07:12:55;15.90;99.90
26954;DHT22;14508;50.924;11.600;2023-08-30T07:15:23;16.10;99.90
26954;DHT22;14508;50.924;11.600;2023-08-30T07:17:52;16.20;99.90
26954;DHT22;14508;50.924;11.600;2023-08-30T07:20:23;16.30;99.90
26954;DHT22;14508;50.924;11.600;2023-08-30T07:22:51;16.50;99.90
26954;DHT22;14508;50.924;11.600;2023-08-30T07:25:20;16.70;99.90
26954;DHT22;14508;50.924;11.600;2023-08-30T07:27:48;16.80;99.90
26954;DHT22;14508;50.924;11.600;2023-08-30T07:30:16;16.90;99.90
26954;DHT22;14508;50.924;11.600;2023-08-30T07:32:44;16.90;99.90
26954;DHT22;14508;50.924;11.600;2023-08-30T07:35:13;17.00;99.90
26954;DHT22;14508;50.924;11.600;2023-08-30T07:37:41;17.10;99.90
26954;DHT22;14508;50.924;11.600;2023-08-30T07:40:10;17.20;99.90
26954;DHT22;14508;50.924;11.600;2023-08-30T07:42:38;17.30;99.90
26954;DHT22;14508;50.924;11.600;2023-08-30T07:45:07;17.40;99.90
26954;DHT22;14508;50.924;11.600;2023-08-30T07:47:35;17.60;99.90
26954;DHT22;14508;50.924;11.600;2023-08-30T07:50:06;17.70;99.90
26954;DHT22;14508;50.924;11.600;2023-08-30T07:52:35;17.90;99.90
26954;DHT22;14508;50.924;11.600;2023-08-30T07:55:13;18.10;99.90
26954;DHT22;14508;50.924;11.600;2023-08-30T07:57:41;18.30;99.90
26954;DHT22;14508;50.924;11.600;2023-08-30T08:00:10;18.40;99.90
26954;DHT22;14508;50.924;11.600;2023-08-30T08:02:38;18.40;99.90
26954;DHT22;14508;50.924;11.600;2023-08-30T08:05:07;18.40;99.90
26954;DHT22;14508;50.924;11.600;2023-08-30T08:07:38;18.50;99.90
26954;DHT22;14508;50.924;11.600;2023-08-30T08:10:07;18.70;99.90
26954;DHT22;14508;50.924;11.600;2023-08-30T08:12:36;18.90;99.90
26954;DHT22;14508;50.924;11.600;2023-08-30T08:15:05;19.20;99.90
26954;DHT22;14508;50.924;11.600;2023-08-30T08:17:34;19.30;99.90
26954;DHT22;14508;50.924;11.600;2023-08-30T08:20:03;19.50;99.90
26954;DHT22;14508;50.924;11.600;2023-08-30T08:22:32;19.70;99.90
26954;DHT22;14508;50.924;11.600;2023-08-30T08:25:01;19.70;99.70
26954;DHT22;14508;50.924;11.600;2023-08-30T08:27:30;19.90;99.10
26954;DHT22;14508;50.924;11.600;2023-08-30T08:29:58;20.00;98.50
26954;DHT22;14508;50.924;11.600;2023-08-30T08:32:26;20.20;97.60
26954;DHT22;14508;50.924;11.600;2023-08-30T08:34:54;20.40;96.90
26954;DHT22;14508;50.924;11.600;2023-08-30T08:37:22;20.50;95.50
26954;DHT22;14508;50.924;11.600;2023-08-30T08:39:50;20.60;93.20
26954;DHT22;14508;50.924;11.600;2023-08-30T08:42:20;20.60;92.50
26954;DHT22;14508;50.924;11.600;2023-08-30T08:44:51;20.80;92.00
26954;DHT22;14508;50.924;11.600;2023-08-30T08:47:20;20.90;91.10
26954;DHT22;14508;50.924;11.600;2023-08-30T08:49:48;21.10;90.80
26954;DHT22;14508;50.924;11.600;2023-08-30T08:52:17;21.30;89.90
26954;DHT22;14508;50.924;11.600;2023-08-30T08:54:57;21.40;86.20
26954;DHT22;14508;50.924;11.600;2023-08-30T08:57:29;21.60;83.60
26954;DHT22;14508;50.924;11.600;2023-08-30T08:59:58;21.70;82.50
26954;DHT22;14508;50.924;11.600;2023-08-30T09:02:26;21.80;79.40
26954;DHT22;14508;50.924;11.600;2023-08-30T09:04:56;21.90;78.10
26954;DHT22;14508;50.924;11.600;2023-08-30T09:07:27;22.00;76.00
26954;DHT22;14508;50.924;11.600;2023-08-30T09:09:55;22.00;74.00
26954;DHT22;14508;50.924;11.600;2023-08-30T09:12:23;22.10;72.50
26954;DHT22;14508;50.924;11.600;2023-08-30T09:14:56;22.10;71.80
26954;DHT22;14508;50.924;11.600;2023-08-30T09:17:35;22.20;72.70
26954;DHT22;14508;50.924;11.600;2023-08-30T09:20:07;22.30;71.90
26954;DHT22;14508;50.924;11.600;2023-08-30T09:22:37;22.50;71.60
26954;DHT22;14508;50.924;11.600;2023-08-30T09:25:07;22.60;69.80
26954;DHT22;14508;50.924;11.600;2023-08-30T09:27:36;22.70;68.40
26954;DHT22;14508;50.924;11.600;2023-08-30T09:30:10;22.80;67.60
26954;DHT22;14508;50.924;11.600;2023-08-30T09:32:40;22.80;67.20
26954;DHT22;14508;50.924;11.600;2023-08-30T09:35:09;22.80;67.30
26954;DHT22;14508;50.924;11.600;2023-08-30T09:37:37;22.70;65.20
26954;DHT22;14508;50.924;11.600;2023-08-30T09:40:06;22.60;65.80
26954;DHT22;14508;50.924;11.600;2023-08-30T09:42:35;22.50;67.10
26954;DHT22;14508;50.924;11.600;2023-08-30T09:45:18;22.60;67.50
26954;DHT22;14508;50.924;11.600;2023-08-30T09:47:47;22.60;67.30
26954;DHT22;14508;50.924;11.600;2023-08-30T09:50:17;22.70;65.80
26954;DHT22;14508;50.924;11.600;2023-08-30T09:52:47;22.70;64.70
26954;DHT22;14508;50.924;11.600;2023-08-30T09:55:18;22.90;64.60
26954;DHT22;14508;50.924;11.600;2023-08-30T09:57:47;22.90;63.70
26954;DHT22;14508;50.924;11.600;2023-08-30T10:00:18;22.80;63.20
26954;DHT22;14508;50.924;11.600;2023-08-30T10:02:47;22.60;63.00
26954;DHT22;14508;50.924;11.600;2023-08-30T10:05:36;22.50;62.90
26954;DHT22;14508;50.924;11.600;2023-08-30T10:08:06;22.50;61.10
26954;DHT22;14508;50.924;11.600;2023-08-30T10:10:34;22.50;59.40
26954;DHT22;14508;50.924;11.600;2023-08-30T10:13:04;22.60;59.20
26954;DHT22;14508;50.924;11.600;2023-08-30T10:15:45;22.80;59.30
26954;DHT22;14508;50.924;11.600;2023-08-30T10:18:15;22.90;58.50
26954;DHT22;14508;50.924;11.600;2023-08-30T10:20:48;23.00;57.40
26954;DHT22;14508;50.924;11.600;2023-08-30T10:23:18;22.90;57.30
26954;DHT22;14508;50.924;11.600;2023-08-30T10:25:48;22.80;57.40
26954;DHT22;14508;50.924;11.600;2023-08-30T10:28:19;22.60;57.00
26954;DHT22;14508;50.924;11.600;2023-08-30T10:30:52;22.50;55.20
26954;DHT22;14508;50.924;11.600;2023-08-30T10:33:20;22.50;54.60
26954;DHT22;14508;50.924;11.600;2023-08-30T10:35:53;22.50;54.70
26954;DHT22;14508;50.924;11.600;2023-08-30T10:38:26;22.70;55.00
26954;DHT22;14508;50.924;11.600;2023-08-30T10:40:54;22.90;54.30
26954;DHT22;14508;50.924;11.600;2023-08-30T10:43:30;23.00;53.40
26954;DHT22;14508;50.924;11.600;2023-08-30T10:46:04;23.00;53.60
26954;DHT22;14508;50.924;11.600;2023-08-30T10:48:35;22.90;54.40
26954;DHT22;14508;50.924;11.600;2023-08-30T10:51:05;22.70;54.80
26954;DHT22;14508;50.924;11.600;2023-08-30T10:53:34;22.60;54.90
26954;DHT22;14508;50.924;11.600;2023-08-30T10:56:10;22.50;54.50
26954;DHT22;14508;50.924;11.600;2023-08-30T10:58:41;22.40;54.80
26954;DHT22;14508;50.924;11.600;2023-08-30T11:01:11;22.30;55.20
26954;DHT22;14508;50.924;11.600;2023-08-30T11:03:41;22.20;55.60
26954;DHT22;14508;50.924;11.600;2023-08-30T11:06:13;22.10;55.40
26954;DHT22;14508;50.924;11.600;2023-08-30T11:08:42;22.00;56.00
26954;DHT22;14508;50.924;11.600;2023-08-30T11:11:10;22.00;56.40
26954;DHT22;14508;50.924;11.600;2023-08-30T11:13:41;22.10;56.00
26954;DHT22;14508;50.924;11.600;2023-08-30T11:16:10;22.20;54.00
26954;DHT22;14508;50.924;11.600;2023-08-30T11:18:39;22.30;53.70
26954;DHT22;14508;50.924;11.600;2023-08-30T11:21:08;22.40;53.60
26954;DHT22;14508;50.924;11.600;2023-08-30T11:23:39;22.40;52.40
26954;DHT22;14508;50.924;11.600;2023-08-30T11:26:07;22.40;52.70
26954;DHT22;14508;50.924;11.600;2023-08-30T11:28:35;22.50;52.80
26954;DHT22;14508;50.924;11.600;2023-08-30T11:31:08;22.70;53.50
26954;DHT22;14508;50.924;11.600;2023-08-30T11:33:38;22.90;54.10
26954;DHT22;14508;50.924;11.600;2023-08-30T11:36:06;23.10;53.60
26954;DHT22;14508;50.924;11.600;2023-08-30T11:38:34;23.20;53.20
26954;DHT22;14508;50.924;11.600;2023-08-30T11:41:02;23.20;52.30
26954;DHT22;14508;50.924;11.600;2023-08-30T11:43:31;23.10;51.40
26954;DHT22;14508;50.924;11.600;2023-08-30T11:45:59;23.00;51.90
26954;DHT22;14508;50.924;11.600;2023-08-30T11:48:29;22.90;52.30
26954;DHT22;14508;50.924;11.600;2023-08-30T11:50:58;22.90;52.80
26954;DHT22;14508;50.924;11.600;2023-08-30T11:53:27;22.70;52.90
26954;DHT22;14508;50.924;11.600;2023-08-30T11:55:55;22.70;53.10
26954;DHT22;14508;50.924;11.600;2023-08-30T11:58:27;22.60;52.90
26954;DHT22;14508;50.924;11.600;2023-08-30T12:00:56;22.70;53.10
26954;DHT22;14508;50.924;11.600;2023-08-30T12:03:26;22.70;52.80
26954;DHT22;14508;50.924;11.600;2023-08-30T12:05:54;22.70;52.80
26954;DHT22;14508;50.924;11.600;2023-08-30T12:08:27;22.80;52.50
26954;DHT22;14508;50.924;11.600;2023-08-30T12:10:57;22.90;52.60
26954;DHT22;14508;50.924;11.600;2023-08-30T12:13:26;23.10;52.50
26954;DHT22;14508;50.924;11.600;2023-08-30T12:15:55;23.20;52.40
26954;DHT22;14508;50.924;11.600;2023-08-30T12:18:23;23.20;52.50
26954;DHT22;14508;50.924;11.600;2023-08-30T12:20:58;23.00;52.30
26954;DHT22;14508;50.924;11.600;2023-08-30T12:23:28;22.80;52.50
26954;DHT22;14508;50.924;11.600;2023-08-30T12:25:57;22.60;53.40
26954;DHT22;14508;50.924;11.600;2023-08-30T12:28:26;22.40;54.00
26954;DHT22;14508;50.924;11.600;2023-08-30T12:30:54;22.30;54.20
26954;DHT22;14508;50.924;11.600;2023-08-30T12:33:22;22.20;54.40
26954;DHT22;14508;50.924;11.600;2023-08-30T12:35:52;22.10;54.80
26954;DHT22;14508;50.924;11.600;2023-08-30T12:38:23;22.10;55.20
26954;DHT22;14508;50.924;11.600;2023-08-30T12:40:53;22.00;55.10
26954;DHT22;14508;50.924;11.600;2023-08-30T12:43:23;22.00;55.10
26954;DHT22;14508;50.924;11.600;2023-08-30T12:45:51;22.10;55.10
26954;DHT22;14508;50.924;11.600;2023-08-30T12:48:19;22.10;54.90
26954;DHT22;14508;50.924;11.600;2023-08-30T12:50:48;22.10;54.90
26954;DHT22;14508;50.924;11.600;2023-08-30T12:53:16;22.20;55.20
26954;DHT22;14508;50.924;11.600;2023-08-30T12:55:44;22.20;54.90
26954;DHT22;14508;50.924;11.600;2023-08-30T12:58:13;22.20;54.70
26954;DHT22;14508;50.924;11.600;2023-08-30T13:00:41;22.20;55.10
26954;DHT22;14508;50.924;11.600;2023-08-30T13:03:09;22.20;55.40
26954;DHT22;14508;50.924;11.600;2023-08-30T13:05:38;22.20;55.10
26954;DHT22;14508;50.924;11.600;2023-08-30T13:08:06;22.20;55.10
26954;DHT22;14508;50.924;11.600;2023-08-30T13:10:34;22.30;55.20
26954;DHT22;14508;50.924;11.600;2023-08-30T13:13:02;22.20;54.90
26954;DHT22;14508;50.924;11.600;2023-08-30T13:15:32;22.20;55.10
26954;DHT22;14508;50.924;11.600;2023-08-30T13:18:00;22.20;55.00
26954;DHT22;14508;50.924;11.600;2023-08-30T13:20:28;22.10;55.50
26954;DHT22;14508;50.924;11.600;2023-08-30T13:22:56;22.10;55.70
26954;DHT22;14508;50.924;11.600;2023-08-30T13:25:24;22.00;55.80
26954;DHT22;14508;50.924;11.600;2023-08-30T13:27:52;21.90;56.10
26954;DHT22;14508;50.924;11.600;2023-08-30T13:30:20;21.90;56.40
26954;DHT22;14508;50.924;11.600;2023-08-30T13:32:49;21.90;56.70
26954;DHT22;14508;50.924;11.600;2023-08-30T13:35:18;21.90;56.90
26954;DHT22;14508;50.924;11.600;2023-08-30T13:37:46;22.00;57.60
26954;DHT22;14508;50.924;11.600;2023-08-30T13:40:14;21.90;57.30
26954;DHT22;14508;50.924;11.600;2023-08-30T13:42:42;21.90;57.50
26954;DHT22;14508;50.924;11.600;2023-08-30T13:45:10;21.90;57.50
26954;DHT22;14508;50.924;11.600;2023-08-30T13:47:40;22.00;57.90
26954;DHT22;14508;50.924;11.600;2023-08-30T13:50:10;22.00;58.10
26954;DHT22;14508;50.924;11.600;2023-08-30T13:52:38;22.00;58.00
26954;DHT22;14508;50.924;11.600;2023-08-30T13:55:06;22.10;58.00
26954;DHT22;14508;50.924;11.600;2023-08-30T13:57:34;22.20;57.90
26954;DHT22;14508;50.924;11.600;2023-08-30T14:00:03;22.30;57.90
26954;DHT22;14508;50.924;11.600;2023-08-30T14:02:36;22.40;57.50
26954;DHT22;14508;50.924;11.600;2023-08-30T14:05:05;22.60;57.20
26954;DHT22;14508;50.924;11.600;2023-08-30T14:07:35;22.80;57.00
26954;DHT22;14508;50.924;11.600;2023-08-30T14:10:03;23.00;56.50
26954;DHT22;14508;50.924;11.600;2023-08-30T14:12:31;23.20;56.60
26954;DHT22;14508;50.924;11.600;2023-08-30T14:15:00;23.40;55.80
26954;DHT22;14508;50.924;11.600;2023-08-30T14:17:29;23.40;55.00
26954;DHT22;14508;50.924;11.600;2023-08-30T14:19:57;23.40;54.80
26954;DHT22;14508;50.924;11.600;2023-08-30T14:22:25;23.20;54.30
26954;DHT22;14508;50.924;11.600;2023-08-30T14:24:54;23.20;54.90
26954;DHT22;14508;50.924;11.600;2023-08-30T14:27:38;23.20;55.00
26954;DHT22;14508;50.924;11.600;2023-08-30T14:30:07;23.20;55.20
26954;DHT22;14508;50.924;11.600;2023-08-30T14:32:35;23.30;55.40
26954;DHT22;14508;50.924;11.600;2023-08-30T14:35:03;23.40;55.40
26954;DHT22;14508;50.924;11.600;2023-08-30T14:37:31;23.50;55.20
26954;DHT22;14508;50.924;11.600;2023-08-30T14:40:03;23.50;55.30
26954;DHT22;14508;50.924;11.600;2023-08-30T14:42:31;23.50;54.90
26954;DHT22;14508;50.924;11.600;2023-08-30T14:44:59;23.50;54.90
26954;DHT22;14508;50.924;11.600;2023-08-30T14:47:29;23.40;55.10
26954;DHT22;14508;50.924;11.600;2023-08-30T14:49:58;23.50;55.30
26954;DHT22;14508;50.924;11.600;2023-08-30T14:52:28;23.40;54.80
26954;DHT22;14508;50.924;11.600;2023-08-30T14:54:56;23.40;54.60
26954;DHT22;14508;50.924;11.600;2023-08-30T14:57:25;23.40;54.80
26954;DHT22;14508;50.924;11.600;2023-08-30T14:59:53;23.40;54.70
26954;DHT22;14508;50.924;11.600;2023-08-30T15:02:21;23.50;54.50
26954;DHT22;14508;50.924;11.600;2023-08-30T15:04:49;23.40;53.90
26954;DHT22;14508;50.924;11.600;2023-08-30T15:07:17;23.50;54.00
26954;DHT22;14508;50.924;11.600;2023-08-30T15:09:45;23.50;54.50
26954;DHT22;14508;50.924;11.600;2023-08-30T15:12:13;23.50;54.30
26954;DHT22;14508;50.924;11.600;2023-08-30T15:14:43;23.50;53.80
26954;DHT22;14508;50.924;11.600;2023-08-30T15:17:11;23.60;53.60
26954;DHT22;14508;50.924;11.600;2023-08-30T15:19:40;23.60;53.50
26954;DHT22;14508;50.924;11.600;2023-08-30T15:22:08;23.60;53.10
26954;DHT22;14508;50.924;11.600;2023-08-30T15:24:36;23.60;52.90
26954;DHT22;14508;50.924;11.600;2023-08-30T15:27:05;23.60;53.00
26954;DHT22;14508;50.924;11.600;2023-08-30T15:29:33;23.50;52.90